sensor_id;sensor_type;location;lat;lon;timestamp;pressure;altitude;pressure_sealevel;temperature;humidity
55301;BME280;58302;51.446;-2.000;2022-09-09T00:04:37;99412.88;;;13.25;100.00
55301;BME280;58302;51.446;-2.000;2022-09-09T00:07:05;99413.25;;;13.32;100.00
55301;BME280;58302;51.446;-2.000;2022-09-09T00:12:12;99413.22;;;13.46;100.00
55301;BME280;58302;51.446;-2.000;2022-09-09T00:14:49;99411.16;;;13.52;100.00
55301;BME280;58302;51.446;-2.000;2022-09-09T00:17:35;99415.00;;;13.51;100.00
55301;BME280;58302;51.446;-2.000;2022-09-09T00:20:12;99421.09;;;13.48;100.00
55301;BME280;58302;51.446;-2.000;2022-09-09T00:22:46;99422.50;;;13.45;100.00
55301;BME280;58302;51.446;-2.000;2022-09-09T00:25:19;99422.69;;;13.49;100.00
55301;BME280;58302;51.446;-2.000;2022-09-09T00:27:50;99420.28;;;13.47;100.00
55301;BME280;58302;51.446;-2.000;2022-09-09T00:30:17;99421.56;;;13.50;100.00
55301;BME280;58302;51.446;-2.000;2022-09-09T00:32:46;99420.09;;;13.43;100.00
55301;BME280;58302;51.446;-2.000;2022-09-09T00:35:22;99416.66;;;13.38;100.00
55301;BME280;58302;51.446;-2.000;2022-09-09T00:37:52;99410.66;;;13.27;100.00
55301;BME280;58302;51.446;-2.000;2022-09-09T00:40:38;99420.06;;;13.21;100.00
55301;BME280;58302;51.446;-2.000;2022-09-09T00:43:37;99418.94;;;13.22;100.00
55301;BME280;58302;51.446;-2.000;2022-09-09T00:49:42;99436.19;;;13.17;100.00
55301;BME280;58302;51.446;-2.000;2022-09-09T00:52:54;99430.25;;;13.15;100.00
55301;BME280;58302;51.446;-2.000;2022-09-09T00:55:27;99437.44;;;13.25;100.00
55301;BME280;58302;51.446;-2.000;2022-09-09T00:57:58;99437.06;;;13.40;100.00
55301;BME280;58302;51.446;-2.000;2022-09-09T01:00:30;99435.47;;;13.39;100.00
55301;BME280;58302;51.446;-2.000;2022-09-09T01:08:01;99442.81;;;13.53;100.00
55301;BME280;58302;51.446;-2.000;2022-09-09T01:10:50;99444.22;;;13.50;100.00
55301;BME280;58302;51.446;-2.000;2022-09-09T01:13:28;99437.84;;;13.55;100.00
55301;BME280;58302;51.446;-2.000;2022-09-09T01:16:00;99449.91;;;13.62;100.00
55301;BME280;58302;51.446;-2.000;2022-09-09T01:18:36;99443.16;;;13.60;100.00
55301;BME280;58302;51.446;-2.000;2022-09-09T01:26:26;99446.91;;;13.64;100.00
55301;BME280;58302;51.446;-2.000;2022-09-09T01:28:54;99448.81;;;13.63;100.00
55301;BME280;58302;51.446;-2.000;2022-09-09T01:31:29;99456.22;;;13.63;100.00
55301;BME280;58302;51.446;-2.000;2022-09-09T01:33:58;99460.84;;;13.62;100.00
55301;BME280;58302;51.446;-2.000;2022-09-09T01:38:53;99468.09;;;13.67;100.00
55301;BME280;58302;51.446;-2.000;2022-09-09T01:41:19;99460.25;;;13.65;100.00
55301;BME280;58302;51.446;-2.000;2022-09-09T01:43:45;99466.88;;;13.73;100.00
55301;BME280;58302;51.446;-2.000;2022-09-09T01:46:12;99467.38;;;13.75;100.00
55301;BME280;58302;51.446;-2.000;2022-09-09T01:48:40;99462.41;;;13.77;100.00
55301;BME280;58302;51.446;-2.000;2022-09-09T01:51:08;99466.94;;;13.82;100.00
55301;BME280;58302;51.446;-2.000;2022-09-09T01:53:37;99470.16;;;13.84;100.00
55301;BME280;58302;51.446;-2.000;2022-09-09T01:56:31;99473.56;;;13.89;100.00
55301;BME280;58302;51.446;-2.000;2022-09-09T02:04:39;99473.09;;;13.87;100.00
55301;BME280;58302;51.446;-2.000;2022-09-09T02:11:06;99486.75;;;13.87;100.00
55301;BME280;58302;51.446;-2.000;2022-09-09T02:13:32;99486.41;;;13.89;100.00
55301;BME280;58302;51.446;-2.000;2022-09-09T02:16:15;99489.47;;;13.87;100.00
55301;BME280;58302;51.446;-2.000;2022-09-09T02:21:36;99488.66;;;13.87;100.00
55301;BME280;58302;51.446;-2.000;2022-09-09T02:24:04;99494.94;;;13.87;100.00
55301;BME280;58302;51.446;-2.000;2022-09-09T02:26:32;99493.31;;;13.86;100.00
55301;BME280;58302;51.446;-2.000;2022-09-09T02:29:01;99489.59;;;13.82;100.00
55301;BME280;58302;51.446;-2.000;2022-09-09T02:31:28;99487.50;;;13.79;100.00
55301;BME280;58302;51.446;-2.000;2022-09-09T02:33:55;99491.97;;;13.75;100.00
55301;BME280;58302;51.446;-2.000;2022-09-09T02:36:23;99489.94;;;13.67;100.00
55301;BME280;58302;51.446;-2.000;2022-09-09T02:38:49;99494.25;;;13.59;100.00
55301;BME280;58302;51.446;-2.000;2022-09-09T02:41:19;99494.34;;;13.54;100.00
55301;BME280;58302;51.446;-2.000;2022-09-09T02:43:47;99495.28;;;13.50;100.00
55301;BME280;58302;51.446;-2.000;2022-09-09T02:46:24;99504.09;;;13.47;100.00
55301;BME280;58302;51.446;-2.000;2022-09-09T02:49:00;99501.97;;;13.43;100.00
55301;BME280;58302;51.446;-2.000;2022-09-09T02:51:42;99500.03;;;13.44;100.00
55301;BME280;58302;51.446;-2.000;2022-09-09T02:54:15;99499.13;;;13.49;100.00
55301;BME280;58302;51.446;-2.000;2022-09-09T02:56:44;99502.47;;;13.45;100.00
55301;BME280;58302;51.446;-2.000;2022-09-09T02:59:12;99516.72;;;13.42;100.00
55301;BME280;58302;51.446;-2.000;2022-09-09T03:01:38;99518.03;;;13.45;100.00
55301;BME280;58302;51.446;-2.000;2022-09-09T03:04:05;99515.28;;;13.45;100.00
55301;BME280;58302;51.446;-2.000;2022-09-09T03:06:31;99519.16;;;13.44;100.00
55301;BME280;58302;51.446;-2.000;2022-09-09T03:08:57;99515.72;;;13.38;100.00
55301;BME280;58302;51.446;-2.000;2022-09-09T03:11:26;99523.72;;;13.35;100.00
55301;BME280;58302;51.446;-2.000;2022-09-09T03:13:53;99526.25;;;13.31;100.00
55301;BME280;58302;51.446;-2.000;2022-09-09T03:16:22;99525.03;;;13.24;100.00
55301;BME280;58302;51.446;-2.000;2022-09-09T03:18:47;99527.88;;;13.18;100.00
55301;BME280;58302;51.446;-2.000;2022-09-09T03:21:13;99525.16;;;13.18;100.00
55301;BME280;58302;51.446;-2.000;2022-09-09T03:23:39;99528.09;;;13.22;100.00
55301;BME280;58302;51.446;-2.000;2022-09-09T03:26:05;99528.59;;;13.24;100.00
55301;BME280;58302;51.446;-2.000;2022-09-09T03:28:31;99530.38;;;13.29;100.00
55301;BME280;58302;51.446;-2.000;2022-09-09T03:30:58;99532.84;;;13.30;100.00
55301;BME280;58302;51.446;-2.000;2022-09-09T03:33:24;99529.78;;;13.32;100.00
55301;BME280;58302;51.446;-2.000;2022-09-09T03:35:49;99530.59;;;13.32;100.00
55301;BME280;58302;51.446;-2.000;2022-09-09T03:38:16;99530.59;;;13.32;100.00
55301;BME280;58302;51.446;-2.000;2022-09-09T03:40:49;99533.00;;;13.34;100.00
55301;BME280;58302;51.446;-2.000;2022-09-09T03:43:15;99528.88;;;13.36;100.00
55301;BME280;58302;51.446;-2.000;2022-09-09T03:45:45;99546.88;;;13.37;100.00
55301;BME280;58302;51.446;-2.000;2022-09-09T03:48:13;99548.69;;;13.42;100.00
55301;BME280;58302;51.446;-2.000;2022-09-09T03:50:39;99541.28;;;13.42;100.00
55301;BME280;58302;51.446;-2.000;2022-09-09T03:53:04;99550.88;;;13.40;100.00
55301;BME280;58302;51.446;-2.000;2022-09-09T03:55:31;99552.53;;;13.41;100.00
55301;BME280;58302;51.446;-2.000;2022-09-09T03:57:57;99555.53;;;13.39;100.00
55301;BME280;58302;51.446;-2.000;2022-09-09T04:00:23;99554.75;;;13.39;100.00
55301;BME280;58302;51.446;-2.000;2022-09-09T04:02:49;99558.28;;;13.39;100.00
55301;BME280;58302;51.446;-2.000;2022-09-09T04:05:15;99553.94;;;13.38;100.00
55301;BME280;58302;51.446;-2.000;2022-09-09T04:07:41;99553.34;;;13.41;100.00
55301;BME280;58302;51.446;-2.000;2022-09-09T04:10:07;99549.38;;;13.48;100.00
55301;BME280;58302;51.446;-2.000;2022-09-09T04:12:33;99556.75;;;13.47;100.00
55301;BME280;58302;51.446;-2.000;2022-09-09T04:15:00;99553.13;;;13.52;100.00
55301;BME280;58302;51.446;-2.000;2022-09-09T04:17:27;99562.91;;;13.53;100.00
55301;BME280;58302;51.446;-2.000;2022-09-09T04:19:53;99571.59;;;13.55;100.00
55301;BME280;58302;51.446;-2.000;2022-09-09T04:22:19;99560.19;;;13.53;100.00
55301;BME280;58302;51.446;-2.000;2022-09-09T04:24:44;99566.25;;;13.50;100.00
55301;BME280;58302;51.446;-2.000;2022-09-09T04:27:10;99563.19;;;13.51;100.00
55301;BME280;58302;51.446;-2.000;2022-09-09T04:29:36;99566.25;;;13.50;100.00
55301;BME280;58302;51.446;-2.000;2022-09-09T04:32:01;99574.13;;;13.51;100.00
55301;BME280;58302;51.446;-2.000;2022-09-09T04:34:27;99570.31;;;13.52;100.00
55301;BME280;58302;51.446;-2.000;2022-09-09T04:36:53;99572.22;;;13.52;100.00
55301;BME280;58302;51.446;-2.000;2022-09-09T04:39:20;99574.44;;;13.50;100.00
55301;BME280;58302;51.446;-2.000;2022-09-09T04:41:45;99576.84;;;13.51;100.00
55301;BME280;58302;51.446;-2.000;2022-09-09T04:44:12;99578.97;;;13.54;100.00
55301;BME280;58302;51.446;-2.000;2022-09-09T04:46:38;99581.91;;;13.58;100.00
55301;BME280;58302;51.446;-2.000;2022-09-09T04:49:03;99579.38;;;13.61;100.00
55301;BME280;58302;51.446;-2.000;2022-09-09T04:51:30;99581.91;;;13.58;100.00
55301;BME280;58302;51.446;-2.000;2022-09-09T04:53:56;99585.13;;;13.60;100.00
55301;BME280;58302;51.446;-2.000;2022-09-09T04:56:22;99586.25;;;13.59;100.00
55301;BME280;58302;51.446;-2.000;2022-09-09T04:58:48;99592.53;;;13.59;100.00
55301;BME280;58302;51.446;-2.000;2022-09-09T05:01:23;99596.47;;;13.53;100.00
55301;BME280;58302;51.446;-2.000;2022-09-09T05:03:50;99594.66;;;13.49;100.00
55301;BME280;58302;51.446;-2.000;2022-09-09T05:06:16;99594.56;;;13.54;100.00
55301;BME280;58302;51.446;-2.000;2022-09-09T05:08:43;99600.63;;;13.51;100.00
55301;BME280;58302;51.446;-2.000;2022-09-09T05:11:25;99605.25;;;13.50;100.00
55301;BME280;58302;51.446;-2.000;2022-09-09T05:13:52;99604.66;;;13.53;100.00
55301;BME280;58302;51.446;-2.000;2022-09-09T05:16:18;99605.47;;;13.54;100.00
55301;BME280;58302;51.446;-2.000;2022-09-09T05:18:44;99607.09;;;13.55;100.00
55301;BME280;58302;51.446;-2.000;2022-09-09T05:21:11;99612.13;;;13.61;100.00
55301;BME280;58302;51.446;-2.000;2022-09-09T05:23:38;99610.41;;;13.65;100.00
55301;BME280;58302;51.446;-2.000;2022-09-09T05:26:04;99613.72;;;13.62;100.00
55301;BME280;58302;51.446;-2.000;2022-09-09T05:28:29;99623.03;;;13.61;100.00
55301;BME280;58302;51.446;-2.000;2022-09-09T05:30:56;99619.50;;;13.61;100.00
55301;BME280;58302;51.446;-2.000;2022-09-09T05:33:23;99618.50;;;13.57;100.00
55301;BME280;58302;51.446;-2.000;2022-09-09T05:35:54;99619.72;;;13.51;100.00
55301;BME280;58302;51.446;-2.000;2022-09-09T05:38:21;99624.28;;;13.41;100.00
55301;BME280;58302;51.446;-2.000;2022-09-09T05:40:49;99624.28;;;13.41;100.00
55301;BME280;58302;51.446;-2.000;2022-09-09T05:43:15;99622.28;;;13.47;100.00
55301;BME280;58302;51.446;-2.000;2022-09-09T05:45:41;99629.34;;;13.48;100.00
55301;BME280;58302;51.446;-2.000;2022-09-09T05:48:07;99627.91;;;13.51;100.00
55301;BME280;58302;51.446;-2.000;2022-09-09T05:50:33;99627.53;;;13.43;100.00
55301;BME280;58302;51.446;-2.000;2022-09-09T05:52:59;99630.97;;;13.35;100.00
55301;BME280;58302;51.446;-2.000;2022-09-09T05:55:24;99629.75;;;13.28;100.00
55301;BME280;58302;51.446;-2.000;2022-09-09T05:57:51;99636.09;;;13.23;100.00
55301;BME280;58302;51.446;-2.000;2022-09-09T06:00:17;99636.91;;;13.24;100.00
55301;BME280;58302;51.446;-2.000;2022-09-09T06:02:43;99636.16;;;13.18;100.00
55301;BME280;58302;51.446;-2.000;2022-09-09T06:05:09;99646.59;;;13.16;100.00
55301;BME280;58302;51.446;-2.000;2022-09-09T06:07:36;99639.84;;;13.13;100.00
55301;BME280;58302;51.446;-2.000;2022-09-09T06:10:02;99652.94;;;13.11;100.00
55301;BME280;58302;51.446;-2.000;2022-09-09T06:12:28;99657.28;;;13.12;100.00
55301;BME280;58302;51.446;-2.000;2022-09-09T06:14:54;99654.78;;;13.16;100.00
55301;BME280;58302;51.446;-2.000;2022-09-09T06:17:20;99665.63;;;13.21;100.00
55301;BME280;58302;51.446;-2.000;2022-09-09T06:19:45;99665.22;;;13.28;100.00
55301;BME280;58302;51.446;-2.000;2022-09-09T06:22:12;99663.09;;;13.38;100.00
55301;BME280;58302;51.446;-2.000;2022-09-09T06:24:38;99670.28;;;13.48;100.00
55301;BME280;58302;51.446;-2.000;2022-09-09T06:27:03;99678.69;;;13.52;100.00
55301;BME280;58302;51.446;-2.000;2022-09-09T06:29:30;99681.00;;;13.58;100.00
55301;BME280;58302;51.446;-2.000;2022-09-09T06:31:56;99677.88;;;13.65;100.00
55301;BME280;58302;51.446;-2.000;2022-09-09T06:34:23;99678.56;;;13.70;100.00
55301;BME280;58302;51.446;-2.000;2022-09-09T06:36:49;99683.72;;;13.72;100.00
55301;BME280;58302;51.446;-2.000;2022-09-09T06:39:15;99682.59;;;13.73;100.00
55301;BME280;58302;51.446;-2.000;2022-09-09T06:41:41;99684.22;;;13.74;100.00
55301;BME280;58302;51.446;-2.000;2022-09-09T06:44:07;99685.03;;;13.75;100.00
55301;BME280;58302;51.446;-2.000;2022-09-09T06:46:33;99684.53;;;13.86;100.00
55301;BME280;58302;51.446;-2.000;2022-09-09T06:49:01;99688.75;;;13.92;100.00
55301;BME280;58302;51.446;-2.000;2022-09-09T06:51:28;99685.91;;;13.97;100.00
55301;BME280;58302;51.446;-2.000;2022-09-09T06:53:54;99687.53;;;13.98;100.00
55301;BME280;58302;51.446;-2.000;2022-09-09T06:58:50;99688.38;;;14.21;100.00
55301;BME280;58302;51.446;-2.000;2022-09-09T07:01:17;99687.91;;;14.42;100.00
55301;BME280;58302;51.446;-2.000;2022-09-09T07:03:45;99689.75;;;14.69;100.00
55301;BME280;58302;51.446;-2.000;2022-09-09T07:06:15;99698.38;;;15.07;100.00
55301;BME280;58302;51.446;-2.000;2022-09-09T07:08:42;99699.81;;;15.36;97.08
55301;BME280;58302;51.446;-2.000;2022-09-09T07:11:09;99700.72;;;15.62;95.49
55301;BME280;58302;51.446;-2.000;2022-09-09T07:13:35;99699.19;;;15.78;94.33
55301;BME280;58302;51.446;-2.000;2022-09-09T07:16:08;99700.03;;;15.96;92.21
55301;BME280;58302;51.446;-2.000;2022-09-09T07:18:34;99711.31;;;16.03;92.33
55301;BME280;58302;51.446;-2.000;2022-09-09T07:21:00;99708.09;;;16.01;91.30
55301;BME280;58302;51.446;-2.000;2022-09-09T07:23:27;99706.63;;;16.04;91.81
55301;BME280;58302;51.446;-2.000;2022-09-09T07:25:53;99704.56;;;16.01;91.17
55301;BME280;58302;51.446;-2.000;2022-09-09T07:28:19;99706.81;;;15.99;90.51
55301;BME280;58302;51.446;-2.000;2022-09-09T07:30:55;99711.13;;;15.91;90.21
55301;BME280;58302;51.446;-2.000;2022-09-09T07:33:22;99713.69;;;15.88;91.12
55301;BME280;58302;51.446;-2.000;2022-09-09T07:35:48;99711.47;;;15.90;90.71
55301;BME280;58302;51.446;-2.000;2022-09-09T07:38:14;99714.06;;;15.95;90.72
55301;BME280;58302;51.446;-2.000;2022-09-09T07:40:41;99711.81;;;16.05;88.55
55301;BME280;58302;51.446;-2.000;2022-09-09T07:43:06;99710.53;;;16.20;88.34
55301;BME280;58302;51.446;-2.000;2022-09-09T07:45:33;99718.16;;;16.32;87.12
55301;BME280;58302;51.446;-2.000;2022-09-09T07:47:59;99725.88;;;16.30;86.05
55301;BME280;58302;51.446;-2.000;2022-09-09T07:50:24;99724.59;;;16.36;86.77
55301;BME280;58302;51.446;-2.000;2022-09-09T07:52:51;99726.19;;;16.37;86.64
55301;BME280;58302;51.446;-2.000;2022-09-09T07:55:17;99737.50;;;16.44;85.83
55301;BME280;58302;51.446;-2.000;2022-09-09T07:57:45;99736.06;;;16.47;85.17
55301;BME280;58302;51.446;-2.000;2022-09-09T08:00:14;99739.47;;;16.78;84.78
55301;BME280;58302;51.446;-2.000;2022-09-09T08:02:49;99744.88;;;17.30;81.08
55301;BME280;58302;51.446;-2.000;2022-09-09T08:05:20;99738.75;;;17.80;77.75
55301;BME280;58302;51.446;-2.000;2022-09-09T08:07:47;99737.06;;;18.68;74.76
55301;BME280;58302;51.446;-2.000;2022-09-09T08:10:13;99736.44;;;19.62;69.17
55301;BME280;58302;51.446;-2.000;2022-09-09T08:12:41;99736.03;;;20.37;66.18
55301;BME280;58302;51.446;-2.000;2022-09-09T08:15:07;99743.25;;;21.22;61.36
55301;BME280;58302;51.446;-2.000;2022-09-09T08:17:33;99743.81;;;21.59;59.46
55301;BME280;58302;51.446;-2.000;2022-09-09T08:19:58;99751.25;;;21.55;59.25
55301;BME280;58302;51.446;-2.000;2022-09-09T08:22:28;99748.00;;;21.09;60.59
55301;BME280;58302;51.446;-2.000;2022-09-09T08:24:54;99757.59;;;19.94;64.72
55301;BME280;58302;51.446;-2.000;2022-09-09T08:27:20;99759.00;;;19.55;66.77
55301;BME280;58302;51.446;-2.000;2022-09-09T08:29:46;99754.34;;;18.89;67.89
55301;BME280;58302;51.446;-2.000;2022-09-09T08:32:19;99765.47;;;18.51;69.72
55301;BME280;58302;51.446;-2.000;2022-09-09T08:34:47;99768.13;;;18.18;71.63
55301;BME280;58302;51.446;-2.000;2022-09-09T08:37:17;99768.53;;;18.08;72.05
55301;BME280;58302;51.446;-2.000;2022-09-09T08:39:45;99777.84;;;18.15;71.57
55301;BME280;58302;51.446;-2.000;2022-09-09T08:42:25;99770.44;;;18.37;71.22
55301;BME280;58302;51.446;-2.000;2022-09-09T08:45:02;99772.63;;;18.73;69.11
55301;BME280;58302;51.446;-2.000;2022-09-09T08:50:19;99784.94;;;18.67;67.73
55301;BME280;58302;51.446;-2.000;2022-09-09T08:57:48;99793.00;;;19.14;66.04
55301;BME280;58302;51.446;-2.000;2022-09-09T09:00:15;99793.94;;;19.51;66.65
55301;BME280;58302;51.446;-2.000;2022-09-09T09:10:51;99801.59;;;19.79;63.25
55301;BME280;58302;51.446;-2.000;2022-09-09T09:14:01;99802.50;;;19.70;64.31
55301;BME280;58302;51.446;-2.000;2022-09-09T09:16:42;99808.22;;;19.78;63.95
55301;BME280;58302;51.446;-2.000;2022-09-09T09:19:14;99805.97;;;20.53;62.33
55301;BME280;58302;51.446;-2.000;2022-09-09T09:21:41;99817.81;;;21.06;59.41
55301;BME280;58302;51.446;-2.000;2022-09-09T09:24:23;99820.38;;;20.99;59.37
55301;BME280;58302;51.446;-2.000;2022-09-09T09:26:53;99818.84;;;20.12;61.47
55301;BME280;58302;51.446;-2.000;2022-09-09T09:29:19;99829.84;;;19.42;64.07
55301;BME280;58302;51.446;-2.000;2022-09-09T09:34:17;99844.44;;;18.59;67.89
55301;BME280;58302;51.446;-2.000;2022-09-09T09:36:44;99841.09;;;18.45;68.37
55301;BME280;58302;51.446;-2.000;2022-09-09T09:41:48;99849.25;;;19.13;65.63
55301;BME280;58302;51.446;-2.000;2022-09-09T09:44:24;99846.63;;;19.83;63.04
55301;BME280;58302;51.446;-2.000;2022-09-09T09:46:51;99848.16;;;20.78;59.40
55301;BME280;58302;51.446;-2.000;2022-09-09T09:49:28;99848.97;;;21.47;56.62
55301;BME280;58302;51.446;-2.000;2022-09-09T09:51:54;99855.69;;;21.62;57.04
55301;BME280;58302;51.446;-2.000;2022-09-09T09:54:27;99859.66;;;21.20;58.23
55301;BME280;58302;51.446;-2.000;2022-09-09T09:56:54;99865.09;;;21.17;58.68
55301;BME280;58302;51.446;-2.000;2022-09-09T09:59:22;99869.22;;;20.58;58.94
55301;BME280;58302;51.446;-2.000;2022-09-09T10:01:49;99869.09;;;20.30;61.25
55301;BME280;58302;51.446;-2.000;2022-09-09T10:04:16;99870.34;;;20.20;61.33
55301;BME280;58302;51.446;-2.000;2022-09-09T10:06:44;99877.00;;;20.07;61.70
55301;BME280;58302;51.446;-2.000;2022-09-09T10:09:26;99863.09;;;20.04;62.48
55301;BME280;58302;51.446;-2.000;2022-09-09T10:14:30;99870.56;;;20.03;62.10
55301;BME280;58302;51.446;-2.000;2022-09-09T10:19:33;99883.13;;;19.67;64.50
55301;BME280;58302;51.446;-2.000;2022-09-09T10:22:43;99880.44;;;19.92;64.10
55301;BME280;58302;51.446;-2.000;2022-09-09T10:28:24;99889.78;;;19.66;63.77
55301;BME280;58302;51.446;-2.000;2022-09-09T10:30:16;99886.84;;;19.51;63.98
55301;BME280;58302;51.446;-2.000;2022-09-09T10:32:48;99884.75;;;19.47;65.69
55301;BME280;58302;51.446;-2.000;2022-09-09T10:35:33;99890.66;;;19.58;64.81
55301;BME280;58302;51.446;-2.000;2022-09-09T10:38:16;99887.25;;;19.40;66.05
55301;BME280;58302;51.446;-2.000;2022-09-09T10:40:44;99899.03;;;19.29;66.63
55301;BME280;58302;51.446;-2.000;2022-09-09T10:45:48;99901.69;;;19.58;65.59
55301;BME280;58302;51.446;-2.000;2022-09-09T10:48:28;99896.13;;;19.46;65.41
55301;BME280;58302;51.446;-2.000;2022-09-09T10:51:07;99908.50;;;19.40;65.80
55301;BME280;58302;51.446;-2.000;2022-09-09T10:53:39;99904.19;;;19.30;66.86
55301;BME280;58302;51.446;-2.000;2022-09-09T10:56:12;99900.34;;;19.43;66.62
55301;BME280;58302;51.446;-2.000;2022-09-09T10:58:53;99907.16;;;19.46;66.62
55301;BME280;58302;51.446;-2.000;2022-09-09T11:03:47;99905.25;;;19.38;66.11
55301;BME280;58302;51.446;-2.000;2022-09-09T11:06:20;99911.47;;;19.14;66.80
55301;BME280;58302;51.446;-2.000;2022-09-09T11:08:49;99918.09;;;18.92;68.25
55301;BME280;58302;51.446;-2.000;2022-09-09T11:11:17;99910.06;;;19.08;67.79
55301;BME280;58302;51.446;-2.000;2022-09-09T11:13:47;99918.84;;;19.43;66.86
55301;BME280;58302;51.446;-2.000;2022-09-09T11:16:19;99911.78;;;19.87;64.65
55301;BME280;58302;51.446;-2.000;2022-09-09T11:18:49;99918.53;;;20.23;62.46
55301;BME280;58302;51.446;-2.000;2022-09-09T11:21:28;99916.63;;;20.60;61.82
55301;BME280;58302;51.446;-2.000;2022-09-09T11:23:58;99904.34;;;21.22;59.12
55301;BME280;58302;51.446;-2.000;2022-09-09T11:26:36;99915.50;;;22.10;57.79
55301;BME280;58302;51.446;-2.000;2022-09-09T11:34:50;99917.00;;;23.22;51.91
55301;BME280;58302;51.446;-2.000;2022-09-09T11:40:25;99919.56;;;22.00;54.37
55301;BME280;58302;51.446;-2.000;2022-09-09T11:45:31;99922.97;;;22.09;54.95
55301;BME280;58302;51.446;-2.000;2022-09-09T11:47:59;99933.91;;;22.34;54.10
55301;BME280;58302;51.446;-2.000;2022-09-09T11:53:02;99915.56;;;22.93;52.55
55301;BME280;58302;51.446;-2.000;2022-09-09T11:55:29;99917.66;;;23.54;51.10
55301;BME280;58302;51.446;-2.000;2022-09-09T11:57:58;99926.66;;;23.47;49.89
55301;BME280;58302;51.446;-2.000;2022-09-09T12:00:37;99926.19;;;23.45;50.70
55301;BME280;58302;51.446;-2.000;2022-09-09T12:03:03;99942.50;;;23.11;50.38
55301;BME280;58302;51.446;-2.000;2022-09-09T12:05:37;99941.72;;;22.79;52.13
55301;BME280;58302;51.446;-2.000;2022-09-09T12:08:04;99932.19;;;22.77;52.44
55301;BME280;58302;51.446;-2.000;2022-09-09T12:10:35;99925.22;;;23.18;51.44
55301;BME280;58302;51.446;-2.000;2022-09-09T12:13:15;99935.47;;;23.91;49.71
55301;BME280;58302;51.446;-2.000;2022-09-09T12:15:51;99923.91;;;24.55;48.42
55301;BME280;58302;51.446;-2.000;2022-09-09T12:18:26;99928.78;;;24.88;46.40
55301;BME280;58302;51.446;-2.000;2022-09-09T12:36:36;99939.72;;;22.92;52.48
55301;BME280;58302;51.446;-2.000;2022-09-09T12:39:10;99936.28;;;22.99;52.01
55301;BME280;58302;51.446;-2.000;2022-09-09T12:41:37;99939.81;;;22.64;52.67
55301;BME280;58302;51.446;-2.000;2022-09-09T12:44:04;99940.53;;;22.01;54.58
55301;BME280;58302;51.446;-2.000;2022-09-09T12:49:01;99928.41;;;21.34;57.95
55301;BME280;58302;51.446;-2.000;2022-09-09T12:51:30;99942.94;;;22.03;56.01
55301;BME280;58302;51.446;-2.000;2022-09-09T12:53:57;99931.88;;;22.31;53.83
55301;BME280;58302;51.446;-2.000;2022-09-09T12:56:24;99931.41;;;22.45;54.25
55301;BME280;58302;51.446;-2.000;2022-09-09T12:58:55;99930.50;;;22.25;55.32
55301;BME280;58302;51.446;-2.000;2022-09-09T13:01:26;99931.25;;;22.38;53.99
55301;BME280;58302;51.446;-2.000;2022-09-09T13:03:54;99925.06;;;23.11;52.69
55301;BME280;58302;51.446;-2.000;2022-09-09T13:06:27;99918.66;;;23.84;49.68
55301;BME280;58302;51.446;-2.000;2022-09-09T13:08:53;99919.69;;;24.91;46.67
55301;BME280;58302;51.446;-2.000;2022-09-09T13:11:21;99921.25;;;24.39;46.52
55301;BME280;58302;51.446;-2.000;2022-09-09T13:13:52;99920.31;;;23.66;48.02
55301;BME280;58302;51.446;-2.000;2022-09-09T13:16:20;99928.72;;;23.15;49.75
55301;BME280;58302;51.446;-2.000;2022-09-09T13:18:47;99928.97;;;23.45;49.55
55301;BME280;58302;51.446;-2.000;2022-09-09T13:21:13;99922.78;;;23.71;48.35
55301;BME280;58302;51.446;-2.000;2022-09-09T13:23:39;99921.59;;;24.14;47.70
55301;BME280;58302;51.446;-2.000;2022-09-09T13:26:06;99922.94;;;24.43;47.26
55301;BME280;58302;51.446;-2.000;2022-09-09T13:28:47;99927.09;;;24.80;46.31
55301;BME280;58302;51.446;-2.000;2022-09-09T13:31:21;99925.00;;;24.27;47.54
55301;BME280;58302;51.446;-2.000;2022-09-09T13:33:48;99932.47;;;23.61;49.87
55301;BME280;58302;51.446;-2.000;2022-09-09T13:36:14;99940.81;;;23.07;51.76
55301;BME280;58302;51.446;-2.000;2022-09-09T13:41:18;99941.25;;;22.26;55.46
55301;BME280;58302;51.446;-2.000;2022-09-09T13:43:47;99939.34;;;21.87;55.80
55301;BME280;58302;51.446;-2.000;2022-09-09T13:46:33;99934.50;;;21.68;57.06
55301;BME280;58302;51.446;-2.000;2022-09-09T13:51:44;99940.50;;;21.17;59.73
55301;BME280;58302;51.446;-2.000;2022-09-09T13:54:13;99936.88;;;21.41;59.97
55301;BME280;58302;51.446;-2.000;2022-09-09T13:56:40;99945.47;;;21.92;58.15
55301;BME280;58302;51.446;-2.000;2022-09-09T13:59:08;99947.59;;;22.27;56.67
55301;BME280;58302;51.446;-2.000;2022-09-09T14:01:36;99951.22;;;22.47;55.85
55301;BME280;58302;51.446;-2.000;2022-09-09T14:04:03;99953.66;;;22.64;55.16
55301;BME280;58302;51.446;-2.000;2022-09-09T14:06:29;99952.75;;;22.60;55.60
55301;BME280;58302;51.446;-2.000;2022-09-09T14:08:55;99954.25;;;22.73;54.66
55301;BME280;58302;51.446;-2.000;2022-09-09T14:13:47;99959.09;;;22.76;53.67
55301;BME280;58302;51.446;-2.000;2022-09-09T14:16:12;99952.38;;;22.77;54.75
55301;BME280;58302;51.446;-2.000;2022-09-09T14:18:39;99953.34;;;22.85;53.15
55301;BME280;58302;51.446;-2.000;2022-09-09T14:21:06;99952.47;;;22.81;53.75
55301;BME280;58302;51.446;-2.000;2022-09-09T14:23:32;99948.72;;;22.73;54.77
55301;BME280;58302;51.446;-2.000;2022-09-09T14:25:57;99955.44;;;22.88;55.79
55301;BME280;58302;51.446;-2.000;2022-09-09T14:28:23;99948.38;;;22.59;55.41
55301;BME280;58302;51.446;-2.000;2022-09-09T14:30:50;99958.44;;;22.83;55.52
55301;BME280;58302;51.446;-2.000;2022-09-09T14:33:16;99961.66;;;22.85;53.57
55301;BME280;58302;51.446;-2.000;2022-09-09T14:35:42;99957.06;;;22.42;55.67
55301;BME280;58302;51.446;-2.000;2022-09-09T14:38:09;99959.28;;;22.52;56.59
55301;BME280;58302;51.446;-2.000;2022-09-09T14:40:35;99962.84;;;22.68;55.17
55301;BME280;58302;51.446;-2.000;2022-09-09T14:43:02;99966.78;;;22.67;55.82
55301;BME280;58302;51.446;-2.000;2022-09-09T14:45:27;99969.81;;;22.62;55.61
55301;BME280;58302;51.446;-2.000;2022-09-09T14:47:54;99963.66;;;22.37;57.57